Four Corners Regional Airport Farmington US
ICAO: KFMN
IATA: FMN
Category: Medium
Scheduled Services: No

Elevation: 5506 ft
TransAlt. 18000 ft.

Airport Communications:
ATIS:127.15
DENVER CNTR:118.575
CTAF:118.9
GND:121.7
ALBUQUERQUE RDO:122.4
FARMINGTON TWR:118.9
UNICOM:122.95

KFMN Zoom In..

Runways:

(A) RW 05 length 6500 ft width 150 ft
---- / hdg 53

(B) RW 07 length 6704 ft width 100 ft
---- / hdg 76

(C) RW 23 length 6500 ft width 150 ft
---- / hdg 233

(D) RW 25 length 6704 ft width 100 ft
ILS 111.90 / hdg 256

Location; KFMN
Day. 25 / Time. 11.53 Zulu
* Altimeter: 30.19
* Temperature: 08° c. 46.4°f.
* Wind from: 320° Speed 04 kn.
Dewpoint: -12° c.
Visibility: 10 Statute Miles.
Clouds: Clear (automated report).

KFMN 251153Z 32004KT 10SM CLR 08/M12 A3019 RMK AO2 SLP184 T00781117 10156 20078 53012


Wind From 320°
Speed 04 kn.

  YouTube Music Video
 
jpsmedia.com for Web Design  worldairports.se 2018   terms of use